createdAt,value
2023-06-11T00:03:08.423Z,100431.91
2023-06-11T00:08:11.135Z,100436.84
2023-06-11T00:13:12.864Z,100434.03
2023-06-11T00:18:15.549Z,100446.56
2023-06-11T00:23:17.223Z,100445.06
2023-06-11T00:28:19.642Z,100441.69
2023-06-11T00:33:21.533Z,100445.91
2023-06-11T00:38:23.319Z,100440.66
2023-06-11T00:43:25.164Z,100445.19
2023-06-11T00:48:27.185Z,100442.97
2023-06-11T00:53:29.166Z,100449.66
2023-06-11T00:58:31.140Z,100450.44
2023-06-11T01:03:34.608Z,100455.25
2023-06-11T01:08:41.983Z,100466.94
2023-06-11T01:13:43.848Z,100457.81
2023-06-11T01:19:05.021Z,100458.66
2023-06-11T01:24:18.022Z,100470.03
2023-06-11T01:29:23.494Z,100460.59
2023-06-11T01:34:28.064Z,100461.81
2023-06-11T01:39:30.210Z,100467.44
2023-06-11T01:44:36.666Z,100471.63
2023-06-11T01:49:38.388Z,100478.00
2023-06-11T01:54:40.168Z,100474.50
2023-06-11T01:59:41.911Z,100482.38
2023-06-11T02:04:43.560Z,100484.50
2023-06-11T02:09:45.373Z,100488.97
2023-06-11T02:14:47.052Z,100482.75
2023-06-11T02:19:48.790Z,100480.31
2023-06-11T02:24:50.877Z,100477.28
2023-06-11T02:29:53.108Z,100481.38
2023-06-11T02:34:55.527Z,100481.91
2023-06-11T02:39:57.280Z,100477.19
2023-06-11T02:44:59.060Z,100481.50
2023-06-11T02:50:00.893Z,100487.34
2023-06-11T02:55:02.599Z,100477.53
2023-06-11T03:00:04.887Z,100490.59
2023-06-11T03:05:06.914Z,100497.41
2023-06-11T03:10:09.182Z,100500.66
2023-06-11T03:15:11.392Z,100490.97
2023-06-11T03:20:14.322Z,100492.50
2023-06-11T03:25:16.496Z,100505.22
2023-06-11T03:30:18.742Z,100507.78
2023-06-11T03:35:20.673Z,100510.69
2023-06-11T03:40:23.292Z,100514.44
2023-06-11T03:45:26.897Z,100512.06
2023-06-11T03:50:28.579Z,100511.19
2023-06-11T03:55:32.277Z,100507.97
2023-06-11T04:00:34.128Z,100514.41
2023-06-11T04:05:37.763Z,100518.47
2023-06-11T04:10:40.937Z,100526.09
2023-06-11T04:15:43.106Z,100535.88
2023-06-11T04:20:46.736Z,100535.38
2023-06-11T04:25:51.908Z,100533.91
2023-06-11T04:30:59.057Z,100531.31
2023-06-11T04:36:10.488Z,100536.25
2023-06-11T04:41:14.887Z,100531.72
2023-06-11T04:46:20.360Z,100532.03
2023-06-11T04:51:24.976Z,100539.03
2023-06-11T04:56:28.455Z,100531.75
2023-06-11T05:01:31.511Z,100532.47
2023-06-11T05:06:34.833Z,100535.31
2023-06-11T05:11:38.380Z,100534.09
2023-06-11T05:16:42.559Z,100538.72
2023-06-11T05:21:46.099Z,100537.69
2023-06-11T05:26:48.012Z,100531.19
2023-06-11T05:31:52.148Z,100535.97
2023-06-11T05:36:54.066Z,100541.66
2023-06-11T05:41:55.842Z,100539.13
2023-06-11T05:46:58.982Z,100541.47
2023-06-11T05:52:01.730Z,100541.53
2023-06-11T05:57:04.687Z,100551.00
2023-06-11T06:02:07.188Z,100560.53
2023-06-11T06:07:08.931Z,100555.44
2023-06-11T06:12:11.595Z,100562.06
2023-06-11T06:17:14.293Z,100561.72
2023-06-11T06:22:17.508Z,100575.19
2023-06-11T06:27:19.275Z,100572.47
2023-06-11T06:32:21.390Z,100572.72
2023-06-11T06:37:25.259Z,100570.13
2023-06-11T06:42:27.077Z,100559.56
2023-06-11T06:47:32.726Z,100562.78
2023-06-11T06:52:34.974Z,100557.69
2023-06-11T06:57:36.851Z,100567.41
2023-06-11T07:02:38.684Z,100569.97
2023-06-11T07:07:43.469Z,100575.78
2023-06-11T07:12:46.561Z,100568.28
2023-06-11T07:17:48.531Z,100569.84
2023-06-11T07:22:52.691Z,100572.59
2023-06-11T07:27:54.838Z,100572.28
2023-06-11T07:32:57.510Z,100565.47
2023-06-11T07:37:59.493Z,100565.63
2023-06-11T07:43:01.618Z,100566.31
2023-06-11T07:48:06.706Z,100558.44
2023-06-11T07:53:10.009Z,100556.19
2023-06-11T07:58:12.383Z,100556.31
2023-06-11T08:03:14.313Z,100555.59
2023-06-11T08:08:15.973Z,100550.44
2023-06-11T08:13:17.725Z,100542.97
2023-06-11T08:18:20.155Z,100542.00
2023-06-11T08:23:22.103Z,100541.78
2023-06-11T08:28:23.886Z,100528.56
2023-06-11T08:33:25.760Z,100531.44
2023-06-11T08:38:29.298Z,100538.19
2023-06-11T08:43:31.055Z,100526.50
2023-06-11T08:48:37.340Z,100520.72
2023-06-11T08:53:40.524Z,100508.72
2023-06-11T08:58:42.430Z,100511.19
2023-06-11T09:03:44.221Z,100523.78
2023-06-11T09:08:59.665Z,100514.53
2023-06-11T09:14:02.334Z,100504.19
2023-06-11T09:19:04.028Z,100506.38
2023-06-11T09:24:10.096Z,100504.84
2023-06-11T09:29:11.839Z,100505.53
2023-06-11T09:34:17.647Z,100499.84
2023-06-11T09:39:19.376Z,100501.94
2023-06-11T09:44:21.897Z,100489.69
2023-06-11T09:49:23.613Z,100509.16
2023-06-11T09:54:25.699Z,100497.50
2023-06-11T09:59:28.886Z,100502.25
2023-06-11T10:04:30.806Z,100505.25
2023-06-11T10:09:33.540Z,100510.09
2023-06-11T10:14:36.262Z,100493.16
2023-06-11T10:19:38.285Z,100503.50
2023-06-11T10:24:40.025Z,100501.47
2023-06-11T10:29:49.562Z,100502.16
2023-06-11T10:34:56.251Z,100500.56
2023-06-11T10:39:58.114Z,100505.81
2023-06-11T10:44:59.985Z,100500.72
2023-06-11T10:50:09.098Z,100505.88
2023-06-11T10:55:12.203Z,100511.78
2023-06-11T11:00:14.886Z,100502.47
2023-06-11T11:05:16.668Z,100508.00
2023-06-11T11:10:20.657Z,100506.44
2023-06-11T11:15:22.882Z,100507.66
2023-06-11T11:20:24.678Z,100504.19
2023-06-11T11:25:31.232Z,100499.06
2023-06-11T11:30:33.040Z,100492.53
2023-06-11T11:35:46.787Z,100488.78
2023-06-11T11:40:58.509Z,100491.81
2023-06-11T11:46:00.376Z,100502.50
2023-06-11T11:51:09.629Z,100492.88
2023-06-11T11:56:11.520Z,100496.97
2023-06-11T12:01:24.255Z,100490.41
2023-06-11T12:06:26.754Z,100492.94
2023-06-11T12:11:28.593Z,100487.03
2023-06-11T12:16:30.349Z,100488.72
2023-06-11T12:21:33.306Z,100477.16
2023-06-11T12:26:34.945Z,100482.13
2023-06-11T12:31:37.432Z,100474.09
2023-06-11T12:36:39.938Z,100472.84
2023-06-11T12:41:41.876Z,100460.97
2023-06-11T12:46:43.626Z,100464.13
2023-06-11T12:51:47.774Z,100456.72
2023-06-11T12:56:49.449Z,100462.72
2023-06-11T13:01:51.512Z,100465.00
2023-06-11T13:06:53.381Z,100456.03
2023-06-11T13:11:55.355Z,100444.00
2023-06-11T13:16:57.126Z,100445.16
2023-06-11T13:21:58.819Z,100459.03
2023-06-11T13:27:00.864Z,100446.00
2023-06-11T13:32:03.019Z,100449.94
2023-06-11T13:37:04.757Z,100442.50
2023-06-11T13:42:06.715Z,100435.13
2023-06-11T13:47:09.548Z,100443.16
2023-06-11T13:52:11.442Z,100446.03
2023-06-11T13:57:13.186Z,100455.94
2023-06-11T14:02:14.932Z,100443.78
2023-06-11T14:07:16.675Z,100450.31
2023-06-11T14:12:18.394Z,100456.63
2023-06-11T14:17:20.098Z,100446.63
2023-06-11T14:22:21.915Z,100436.06
2023-06-11T14:27:23.585Z,100439.94
2023-06-11T14:32:26.520Z,100431.63
2023-06-11T14:37:28.413Z,100426.19
2023-06-11T14:42:30.098Z,100416.34
2023-06-11T14:47:31.922Z,100425.50
2023-06-11T14:52:33.772Z,100416.97
2023-06-11T14:57:35.763Z,100422.44
2023-06-11T15:02:37.652Z,100407.84
2023-06-11T15:07:39.513Z,100419.16
2023-06-11T15:12:41.209Z,100416.00
2023-06-11T15:17:43.020Z,100411.09
2023-06-11T15:22:44.871Z,100404.47
2023-06-11T15:27:50.998Z,100402.22
2023-06-11T15:32:52.769Z,100397.16
2023-06-11T15:37:54.469Z,100391.16
2023-06-11T15:42:56.172Z,100393.81
2023-06-11T15:47:57.931Z,100399.81
2023-06-11T15:52:59.781Z,100391.53
2023-06-11T15:58:01.535Z,100377.53
2023-06-11T16:03:03.392Z,100378.38
2023-06-11T16:08:05.308Z,100380.63
2023-06-11T16:13:07.017Z,100369.25
2023-06-11T16:18:08.722Z,100379.97
2023-06-11T16:23:10.425Z,100378.00
2023-06-11T16:28:12.729Z,100375.50
2023-06-11T16:33:14.555Z,100375.06
2023-06-11T16:38:16.278Z,100378.66
2023-06-11T16:43:18.037Z,100373.38
2023-06-11T16:48:19.824Z,100380.91
2023-06-11T16:53:21.627Z,100371.09
2023-06-11T16:58:23.366Z,100372.03
2023-06-11T17:03:25.218Z,100376.28
2023-06-11T17:08:27.325Z,100372.31
2023-06-11T17:13:29.078Z,100381.16
2023-06-11T17:18:31.371Z,100376.94
2023-06-11T17:23:33.093Z,100376.84
2023-06-11T17:28:34.836Z,100368.47
2023-06-11T17:33:36.482Z,100378.31
2023-06-11T17:38:38.161Z,100383.47
2023-06-11T17:43:39.816Z,100380.13
2023-06-11T17:48:41.517Z,100377.34
2023-06-11T17:53:43.286Z,100382.28
2023-06-11T17:58:45.099Z,100374.69
2023-06-11T18:03:46.884Z,100382.25
2023-06-11T18:08:49.312Z,100374.84
2023-06-11T18:13:51.003Z,100371.59
2023-06-11T18:18:53.555Z,100384.66
2023-06-11T18:23:55.406Z,100390.75
2023-06-11T18:28:57.314Z,100380.31
2023-06-11T18:33:59.021Z,100385.84
2023-06-11T18:39:00.767Z,100378.94
2023-06-11T18:44:02.905Z,100381.66
2023-06-11T18:49:17.114Z,100382.72
2023-06-11T18:54:18.836Z,100383.59
2023-06-11T18:59:20.577Z,100389.06
2023-06-11T19:04:23.945Z,100393.44
2023-06-11T19:09:26.201Z,100397.16
2023-06-11T19:14:27.935Z,100402.38
2023-06-11T19:19:29.660Z,100402.09
2023-06-11T19:24:31.457Z,100399.50
2023-06-11T19:29:33.178Z,100411.69
2023-06-11T19:34:34.851Z,100411.59
2023-06-11T19:39:36.519Z,100422.69
2023-06-11T19:44:38.371Z,100427.06
2023-06-11T19:49:40.109Z,100434.34
2023-06-11T19:54:51.521Z,100436.53
2023-06-11T19:59:53.768Z,100440.22
2023-06-11T20:04:55.631Z,100435.03
2023-06-11T20:09:57.869Z,100449.22
2023-06-11T20:14:59.658Z,100452.63
2023-06-11T20:20:01.334Z,100456.91
2023-06-11T20:25:03.244Z,100464.78
2023-06-11T20:30:05.367Z,100465.25
2023-06-11T20:35:07.559Z,100469.47
2023-06-11T20:40:10.123Z,100477.94
2023-06-11T20:45:12.607Z,100478.63
2023-06-11T20:50:14.608Z,100487.06
2023-06-11T20:55:16.857Z,100487.47
2023-06-11T21:00:18.742Z,100482.41
2023-06-11T21:05:21.569Z,100479.25
2023-06-11T21:10:23.568Z,100474.84
2023-06-11T21:15:25.247Z,100475.69
2023-06-11T21:20:27.125Z,100476.91
2023-06-11T21:25:28.951Z,100482.59
2023-06-11T21:30:30.686Z,100485.91
2023-06-11T21:35:32.401Z,100489.81
2023-06-11T21:40:34.061Z,100487.91
2023-06-11T21:45:35.900Z,100486.38
2023-06-11T21:50:37.592Z,100493.28
2023-06-11T21:55:39.242Z,100493.25
2023-06-11T22:00:40.969Z,100492.22
2023-06-11T22:05:42.628Z,100484.00
2023-06-11T22:10:44.552Z,100479.75
2023-06-11T22:15:46.233Z,100480.81
2023-06-11T22:20:48.122Z,100476.94
2023-06-11T22:25:50.072Z,100485.28
2023-06-11T22:30:56.913Z,100484.34
2023-06-11T22:35:59.127Z,100488.88
2023-06-11T22:41:00.783Z,100497.03
2023-06-11T22:46:02.505Z,100492.34
2023-06-11T22:51:10.612Z,100485.13
2023-06-11T22:56:12.799Z,100499.53
2023-06-11T23:01:14.542Z,100496.75
2023-06-11T23:06:16.498Z,100495.59
2023-06-11T23:11:18.716Z,100503.91
2023-06-11T23:16:21.532Z,100498.47
2023-06-11T23:21:23.339Z,100509.44
2023-06-11T23:26:25.110Z,100513.53
2023-06-11T23:31:27.329Z,100504.31
2023-06-11T23:36:29.098Z,100509.22
2023-06-11T23:41:30.748Z,100494.66
2023-06-11T23:46:34.580Z,100491.00
2023-06-11T23:51:36.303Z,100486.59
2023-06-11T23:56:38.192Z,100489.91
